sensor_id;sensor_type;location;lat;lon;timestamp;temperature;humidity
46784;DHT22;32544;52.832;13.816;2024-02-21T00:00:32;23.00;50.50
46784;DHT22;32544;52.832;13.816;2024-02-21T00:01:33;23.00;50.50
46784;DHT22;32544;52.832;13.816;2024-02-21T00:02:33;22.90;50.40
46784;DHT22;32544;52.832;13.816;2024-02-21T00:03:34;22.90;50.60
46784;DHT22;32544;52.832;13.816;2024-02-21T00:04:34;22.90;50.50
46784;DHT22;32544;52.832;13.816;2024-02-21T00:05:36;22.90;50.50
46784;DHT22;32544;52.832;13.816;2024-02-21T00:06:37;22.90;50.40
46784;DHT22;32544;52.832;13.816;2024-02-21T00:07:37;22.90;50.50
46784;DHT22;32544;52.832;13.816;2024-02-21T00:08:38;22.90;50.50
46784;DHT22;32544;52.832;13.816;2024-02-21T00:09:39;22.90;50.50
46784;DHT22;32544;52.832;13.816;2024-02-21T00:10:39;22.90;50.60
46784;DHT22;32544;52.832;13.816;2024-02-21T00:11:40;22.90;50.60
46784;DHT22;32544;52.832;13.816;2024-02-21T00:12:40;22.90;50.50
46784;DHT22;32544;52.832;13.816;2024-02-21T00:13:41;22.90;50.60
46784;DHT22;32544;52.832;13.816;2024-02-21T00:14:41;22.90;50.60
46784;DHT22;32544;52.832;13.816;2024-02-21T00:15:42;22.90;50.60
46784;DHT22;32544;52.832;13.816;2024-02-21T00:16:43;22.90;50.60
46784;DHT22;32544;52.832;13.816;2024-02-21T00:17:44;22.90;50.60
46784;DHT22;32544;52.832;13.816;2024-02-21T00:18:44;22.90;50.60
46784;DHT22;32544;52.832;13.816;2024-02-21T00:19:45;22.90;50.60
46784;DHT22;32544;52.832;13.816;2024-02-21T00:20:46;22.90;50.70
46784;DHT22;32544;52.832;13.816;2024-02-21T00:21:46;22.90;50.60
46784;DHT22;32544;52.832;13.816;2024-02-21T00:22:47;22.90;50.60
46784;DHT22;32544;52.832;13.816;2024-02-21T00:23:47;22.90;50.60
46784;DHT22;32544;52.832;13.816;2024-02-21T00:24:50;22.90;50.80
46784;DHT22;32544;52.832;13.816;2024-02-21T00:25:51;22.90;50.70
46784;DHT22;32544;52.832;13.816;2024-02-21T00:26:51;22.90;50.60
46784;DHT22;32544;52.832;13.816;2024-02-21T00:27:52;22.90;50.50
46784;DHT22;32544;52.832;13.816;2024-02-21T00:28:54;22.90;50.70
46784;DHT22;32544;52.832;13.816;2024-02-21T00:29:54;22.90;50.60
46784;DHT22;32544;52.832;13.816;2024-02-21T00:30:55;22.90;50.60
46784;DHT22;32544;52.832;13.816;2024-02-21T00:31:55;22.90;50.40
46784;DHT22;32544;52.832;13.816;2024-02-21T00:32:56;22.90;50.30
46784;DHT22;32544;52.832;13.816;2024-02-21T00:33:57;22.90;50.40
46784;DHT22;32544;52.832;13.816;2024-02-21T00:34:58;22.90;50.60
46784;DHT22;32544;52.832;13.816;2024-02-21T00:35:58;22.90;50.50
46784;DHT22;32544;52.832;13.816;2024-02-21T00:36:59;22.90;51.00
46784;DHT22;32544;52.832;13.816;2024-02-21T00:38:00;22.90;50.50
46784;DHT22;32544;52.832;13.816;2024-02-21T00:39:00;22.90;50.40
46784;DHT22;32544;52.832;13.816;2024-02-21T00:40:01;22.90;50.50
46784;DHT22;32544;52.832;13.816;2024-02-21T00:41:01;22.90;50.60
46784;DHT22;32544;52.832;13.816;2024-02-21T00:42:02;22.90;50.60
46784;DHT22;32544;52.832;13.816;2024-02-21T00:43:03;22.90;50.60
46784;DHT22;32544;52.832;13.816;2024-02-21T00:44:03;22.90;51.20
46784;DHT22;32544;52.832;13.816;2024-02-21T00:45:06;22.90;50.50
46784;DHT22;32544;52.832;13.816;2024-02-21T00:46:07;22.90;50.50
46784;DHT22;32544;52.832;13.816;2024-02-21T00:47:08;22.90;50.60
46784;DHT22;32544;52.832;13.816;2024-02-21T00:48:08;22.90;50.40
46784;DHT22;32544;52.832;13.816;2024-02-21T00:49:09;22.90;50.50
46784;DHT22;32544;52.832;13.816;2024-02-21T00:50:09;22.90;50.40
46784;DHT22;32544;52.832;13.816;2024-02-21T00:51:10;22.90;50.40
46784;DHT22;32544;52.832;13.816;2024-02-21T00:52:10;22.90;50.30
46784;DHT22;32544;52.832;13.816;2024-02-21T00:53:11;22.90;50.20
46784;DHT22;32544;52.832;13.816;2024-02-21T00:54:12;22.90;50.20
46784;DHT22;32544;52.832;13.816;2024-02-21T00:55:12;22.90;50.20
46784;DHT22;32544;52.832;13.816;2024-02-21T00:56:13;22.90;50.20
46784;DHT22;32544;52.832;13.816;2024-02-21T00:57:13;22.90;50.30
46784;DHT22;32544;52.832;13.816;2024-02-21T00:58:14;22.90;50.30
46784;DHT22;32544;52.832;13.816;2024-02-21T00:59:15;22.90;50.20
46784;DHT22;32544;52.832;13.816;2024-02-21T01:00:15;22.90;50.30
46784;DHT22;32544;52.832;13.816;2024-02-21T01:01:23;22.90;50.40
46784;DHT22;32544;52.832;13.816;2024-02-21T01:02:24;22.90;50.90
46784;DHT22;32544;52.832;13.816;2024-02-21T01:03:24;22.90;50.30
46784;DHT22;32544;52.832;13.816;2024-02-21T01:04:25;22.90;50.30
46784;DHT22;32544;52.832;13.816;2024-02-21T01:05:25;22.90;50.20
46784;DHT22;32544;52.832;13.816;2024-02-21T01:06:27;22.90;50.40
46784;DHT22;32544;52.832;13.816;2024-02-21T01:07:28;22.90;50.10
46784;DHT22;32544;52.832;13.816;2024-02-21T01:08:28;22.90;50.00
46784;DHT22;32544;52.832;13.816;2024-02-21T01:09:29;22.90;50.00
46784;DHT22;32544;52.832;13.816;2024-02-21T01:10:29;22.90;50.00
46784;DHT22;32544;52.832;13.816;2024-02-21T01:11:30;22.90;50.00
46784;DHT22;32544;52.832;13.816;2024-02-21T01:12:31;22.90;50.00
46784;DHT22;32544;52.832;13.816;2024-02-21T01:13:31;22.90;50.00
46784;DHT22;32544;52.832;13.816;2024-02-21T01:14:32;22.90;50.10
46784;DHT22;32544;52.832;13.816;2024-02-21T01:15:32;22.90;50.60
46784;DHT22;32544;52.832;13.816;2024-02-21T01:16:33;22.90;50.80
46784;DHT22;32544;52.832;13.816;2024-02-21T01:17:34;22.90;50.00
46784;DHT22;32544;52.832;13.816;2024-02-21T01:18:36;22.90;50.00
46784;DHT22;32544;52.832;13.816;2024-02-21T01:19:37;22.90;50.10
46784;DHT22;32544;52.832;13.816;2024-02-21T01:20:38;22.90;50.10
46784;DHT22;32544;52.832;13.816;2024-02-21T01:21:39;22.90;50.10
46784;DHT22;32544;52.832;13.816;2024-02-21T01:22:40;22.90;50.00
46784;DHT22;32544;52.832;13.816;2024-02-21T01:23:40;22.90;50.20
46784;DHT22;32544;52.832;13.816;2024-02-21T01:24:41;22.90;50.10
46784;DHT22;32544;52.832;13.816;2024-02-21T01:25:41;22.90;50.00
46784;DHT22;32544;52.832;13.816;2024-02-21T01:26:42;22.90;50.10
46784;DHT22;32544;52.832;13.816;2024-02-21T01:27:43;22.90;50.10
46784;DHT22;32544;52.832;13.816;2024-02-21T01:28:44;22.90;50.00
46784;DHT22;32544;52.832;13.816;2024-02-21T01:29:45;22.90;50.10
46784;DHT22;32544;52.832;13.816;2024-02-21T01:30:46;22.90;50.10
46784;DHT22;32544;52.832;13.816;2024-02-21T01:31:47;22.90;50.10
46784;DHT22;32544;52.832;13.816;2024-02-21T01:32:48;22.90;50.00
46784;DHT22;32544;52.832;13.816;2024-02-21T01:33:48;22.90;50.10
46784;DHT22;32544;52.832;13.816;2024-02-21T01:34:49;22.90;50.10
46784;DHT22;32544;52.832;13.816;2024-02-21T01:35:49;22.90;50.10
46784;DHT22;32544;52.832;13.816;2024-02-21T01:36:50;22.90;50.10
46784;DHT22;32544;52.832;13.816;2024-02-21T01:37:51;22.90;50.20
46784;DHT22;32544;52.832;13.816;2024-02-21T01:38:52;22.90;50.00
46784;DHT22;32544;52.832;13.816;2024-02-21T01:39:52;22.90;50.20
46784;DHT22;32544;52.832;13.816;2024-02-21T01:40:53;22.90;50.10
46784;DHT22;32544;52.832;13.816;2024-02-21T01:41:54;22.90;50.20
46784;DHT22;32544;52.832;13.816;2024-02-21T01:42:55;22.90;50.30
46784;DHT22;32544;52.832;13.816;2024-02-21T01:43:55;22.90;50.20
46784;DHT22;32544;52.832;13.816;2024-02-21T01:44:56;22.90;50.20
46784;DHT22;32544;52.832;13.816;2024-02-21T01:45:57;22.90;50.20
46784;DHT22;32544;52.832;13.816;2024-02-21T01:46:57;22.90;50.20
46784;DHT22;32544;52.832;13.816;2024-02-21T01:47:58;22.90;50.00
46784;DHT22;32544;52.832;13.816;2024-02-21T01:48:59;22.90;50.20
46784;DHT22;32544;52.832;13.816;2024-02-21T01:49:59;22.90;50.00
46784;DHT22;32544;52.832;13.816;2024-02-21T01:51:02;22.90;50.10
46784;DHT22;32544;52.832;13.816;2024-02-21T01:52:03;22.90;50.20
46784;DHT22;32544;52.832;13.816;2024-02-21T01:53:04;22.90;50.10
46784;DHT22;32544;52.832;13.816;2024-02-21T01:54:04;22.90;50.70
46784;DHT22;32544;52.832;13.816;2024-02-21T01:55:06;22.90;50.10
46784;DHT22;32544;52.832;13.816;2024-02-21T01:56:06;22.90;50.00
46784;DHT22;32544;52.832;13.816;2024-02-21T01:57:07;22.90;50.20
46784;DHT22;32544;52.832;13.816;2024-02-21T01:58:08;22.90;50.10
46784;DHT22;32544;52.832;13.816;2024-02-21T01:59:09;22.90;50.20
46784;DHT22;32544;52.832;13.816;2024-02-21T02:00:11;22.90;50.20
46784;DHT22;32544;52.832;13.816;2024-02-21T02:01:13;22.90;50.30
46784;DHT22;32544;52.832;13.816;2024-02-21T02:02:14;22.90;50.10
46784;DHT22;32544;52.832;13.816;2024-02-21T02:03:16;22.90;50.20
46784;DHT22;32544;52.832;13.816;2024-02-21T02:04:17;22.90;50.20
46784;DHT22;32544;52.832;13.816;2024-02-21T02:05:19;22.90;50.10
46784;DHT22;32544;52.832;13.816;2024-02-21T02:06:21;22.90;50.20
46784;DHT22;32544;52.832;13.816;2024-02-21T02:07:22;22.90;50.10
46784;DHT22;32544;52.832;13.816;2024-02-21T02:08:22;22.90;50.10
46784;DHT22;32544;52.832;13.816;2024-02-21T02:09:24;22.90;50.20
46784;DHT22;32544;52.832;13.816;2024-02-21T02:10:24;22.90;50.00
46784;DHT22;32544;52.832;13.816;2024-02-21T02:11:25;22.90;50.10
46784;DHT22;32544;52.832;13.816;2024-02-21T02:12:26;22.90;50.00
46784;DHT22;32544;52.832;13.816;2024-02-21T02:13:27;22.90;50.10
46784;DHT22;32544;52.832;13.816;2024-02-21T02:14:27;22.90;50.10
46784;DHT22;32544;52.832;13.816;2024-02-21T02:15:37;22.90;50.10
46784;DHT22;32544;52.832;13.816;2024-02-21T02:16:37;22.90;50.10
46784;DHT22;32544;52.832;13.816;2024-02-21T02:17:38;22.90;50.10
46784;DHT22;32544;52.832;13.816;2024-02-21T02:18:38;22.90;50.00
46784;DHT22;32544;52.832;13.816;2024-02-21T02:19:39;22.90;50.10
46784;DHT22;32544;52.832;13.816;2024-02-21T02:20:40;22.90;50.00
46784;DHT22;32544;52.832;13.816;2024-02-21T02:21:41;22.90;50.00
46784;DHT22;32544;52.832;13.816;2024-02-21T02:22:43;22.90;50.00
46784;DHT22;32544;52.832;13.816;2024-02-21T02:23:43;22.90;50.00
46784;DHT22;32544;52.832;13.816;2024-02-21T02:24:44;22.90;49.90
46784;DHT22;32544;52.832;13.816;2024-02-21T02:25:45;22.90;49.90
46784;DHT22;32544;52.832;13.816;2024-02-21T02:26:45;22.90;50.00
46784;DHT22;32544;52.832;13.816;2024-02-21T02:27:46;22.90;49.90
46784;DHT22;32544;52.832;13.816;2024-02-21T02:28:47;22.90;50.00
46784;DHT22;32544;52.832;13.816;2024-02-21T02:29:47;22.90;50.00
46784;DHT22;32544;52.832;13.816;2024-02-21T02:30:48;22.90;50.00
46784;DHT22;32544;52.832;13.816;2024-02-21T02:31:49;22.90;50.00
46784;DHT22;32544;52.832;13.816;2024-02-21T02:32:49;22.90;50.00
46784;DHT22;32544;52.832;13.816;2024-02-21T02:33:50;22.90;50.00
46784;DHT22;32544;52.832;13.816;2024-02-21T02:34:51;22.90;49.90
46784;DHT22;32544;52.832;13.816;2024-02-21T02:35:51;22.90;49.90
46784;DHT22;32544;52.832;13.816;2024-02-21T02:36:52;23.00;49.90
46784;DHT22;32544;52.832;13.816;2024-02-21T02:37:52;22.90;49.90
46784;DHT22;32544;52.832;13.816;2024-02-21T02:38:53;23.00;50.00
46784;DHT22;32544;52.832;13.816;2024-02-21T02:39:53;22.90;49.90
46784;DHT22;32544;52.832;13.816;2024-02-21T02:40:54;22.90;50.00
46784;DHT22;32544;52.832;13.816;2024-02-21T02:41:55;22.90;49.90
46784;DHT22;32544;52.832;13.816;2024-02-21T02:42:55;23.00;50.00
46784;DHT22;32544;52.832;13.816;2024-02-21T02:43:56;23.00;49.90
46784;DHT22;32544;52.832;13.816;2024-02-21T02:44:56;22.90;49.90
46784;DHT22;32544;52.832;13.816;2024-02-21T02:45:57;22.90;49.90
46784;DHT22;32544;52.832;13.816;2024-02-21T02:46:58;22.90;49.90
46784;DHT22;32544;52.832;13.816;2024-02-21T02:47:58;22.90;49.90
46784;DHT22;32544;52.832;13.816;2024-02-21T02:48:59;23.00;49.90
46784;DHT22;32544;52.832;13.816;2024-02-21T02:50:00;22.90;49.80
46784;DHT22;32544;52.832;13.816;2024-02-21T02:51:01;23.00;49.90
46784;DHT22;32544;52.832;13.816;2024-02-21T02:52:02;23.00;49.90
46784;DHT22;32544;52.832;13.816;2024-02-21T02:53:03;22.90;49.80
46784;DHT22;32544;52.832;13.816;2024-02-21T02:54:04;23.00;49.90
46784;DHT22;32544;52.832;13.816;2024-02-21T02:55:05;23.00;49.90
46784;DHT22;32544;52.832;13.816;2024-02-21T02:56:05;23.00;49.80
46784;DHT22;32544;52.832;13.816;2024-02-21T02:57:06;23.00;49.90
46784;DHT22;32544;52.832;13.816;2024-02-21T02:58:07;23.00;49.90
46784;DHT22;32544;52.832;13.816;2024-02-21T02:59:09;22.90;49.80
46784;DHT22;32544;52.832;13.816;2024-02-21T03:00:13;22.90;49.90
46784;DHT22;32544;52.832;13.816;2024-02-21T03:01:14;22.90;49.90
46784;DHT22;32544;52.832;13.816;2024-02-21T03:02:15;23.00;49.90
46784;DHT22;32544;52.832;13.816;2024-02-21T03:03:16;22.90;49.90
46784;DHT22;32544;52.832;13.816;2024-02-21T03:04:16;22.90;49.80
46784;DHT22;32544;52.832;13.816;2024-02-21T03:05:20;22.90;49.80
46784;DHT22;32544;52.832;13.816;2024-02-21T03:06:21;23.00;49.90
46784;DHT22;32544;52.832;13.816;2024-02-21T03:07:22;23.00;49.90
46784;DHT22;32544;52.832;13.816;2024-02-21T03:08:22;22.90;49.80
46784;DHT22;32544;52.832;13.816;2024-02-21T03:09:23;23.00;49.90
46784;DHT22;32544;52.832;13.816;2024-02-21T03:10:24;23.00;49.90
46784;DHT22;32544;52.832;13.816;2024-02-21T03:11:24;23.00;49.90
46784;DHT22;32544;52.832;13.816;2024-02-21T03:12:29;23.00;49.90
46784;DHT22;32544;52.832;13.816;2024-02-21T03:13:29;23.00;49.90
46784;DHT22;32544;52.832;13.816;2024-02-21T03:14:30;23.00;49.90
46784;DHT22;32544;52.832;13.816;2024-02-21T03:15:31;23.00;49.80
46784;DHT22;32544;52.832;13.816;2024-02-21T03:16:31;23.00;49.90
46784;DHT22;32544;52.832;13.816;2024-02-21T03:17:32;23.00;49.90
46784;DHT22;32544;52.832;13.816;2024-02-21T03:18:34;22.90;49.80
46784;DHT22;32544;52.832;13.816;2024-02-21T03:19:35;22.90;49.80
46784;DHT22;32544;52.832;13.816;2024-02-21T03:20:35;23.00;49.90
46784;DHT22;32544;52.832;13.816;2024-02-21T03:21:36;23.00;49.80
46784;DHT22;32544;52.832;13.816;2024-02-21T03:22:37;23.00;50.50
46784;DHT22;32544;52.832;13.816;2024-02-21T03:23:38;23.00;49.90
46784;DHT22;32544;52.832;13.816;2024-02-21T03:24:38;23.00;49.80
46784;DHT22;32544;52.832;13.816;2024-02-21T03:25:39;22.90;49.80
46784;DHT22;32544;52.832;13.816;2024-02-21T03:26:39;23.00;49.90
46784;DHT22;32544;52.832;13.816;2024-02-21T03:27:40;22.90;49.80
46784;DHT22;32544;52.832;13.816;2024-02-21T03:28:41;22.90;49.80
46784;DHT22;32544;52.832;13.816;2024-02-21T03:29:41;22.90;49.80
46784;DHT22;32544;52.832;13.816;2024-02-21T03:30:42;22.90;49.90
46784;DHT22;32544;52.832;13.816;2024-02-21T03:31:43;22.90;49.80
46784;DHT22;32544;52.832;13.816;2024-02-21T03:32:43;22.90;49.90
46784;DHT22;32544;52.832;13.816;2024-02-21T03:33:44;22.90;49.80
46784;DHT22;32544;52.832;13.816;2024-02-21T03:34:44;22.90;49.90
46784;DHT22;32544;52.832;13.816;2024-02-21T03:35:45;22.90;49.80
46784;DHT22;32544;52.832;13.816;2024-02-21T03:36:46;22.90;49.80
46784;DHT22;32544;52.832;13.816;2024-02-21T03:37:47;22.90;49.80
46784;DHT22;32544;52.832;13.816;2024-02-21T03:38:47;22.90;49.80
46784;DHT22;32544;52.832;13.816;2024-02-21T03:39:48;22.90;49.80
46784;DHT22;32544;52.832;13.816;2024-02-21T03:40:48;22.90;49.70
46784;DHT22;32544;52.832;13.816;2024-02-21T03:41:49;22.90;49.80
46784;DHT22;32544;52.832;13.816;2024-02-21T03:42:49;22.90;49.70
46784;DHT22;32544;52.832;13.816;2024-02-21T03:43:50;23.00;49.80
46784;DHT22;32544;52.832;13.816;2024-02-21T03:44:51;23.00;49.70
46784;DHT22;32544;52.832;13.816;2024-02-21T03:45:51;23.00;49.70
46784;DHT22;32544;52.832;13.816;2024-02-21T03:46:52;23.00;49.60
46784;DHT22;32544;52.832;13.816;2024-02-21T03:47:52;23.00;49.70
46784;DHT22;32544;52.832;13.816;2024-02-21T03:48:53;23.00;49.60
46784;DHT22;32544;52.832;13.816;2024-02-21T03:49:54;23.00;49.60
46784;DHT22;32544;52.832;13.816;2024-02-21T03:50:54;23.00;49.60
46784;DHT22;32544;52.832;13.816;2024-02-21T03:51:55;23.00;49.60
46784;DHT22;32544;52.832;13.816;2024-02-21T03:52:56;23.00;49.60
46784;DHT22;32544;52.832;13.816;2024-02-21T03:53:56;23.00;49.60
46784;DHT22;32544;52.832;13.816;2024-02-21T03:54:57;23.10;49.60
46784;DHT22;32544;52.832;13.816;2024-02-21T03:56:00;23.10;49.60
46784;DHT22;32544;52.832;13.816;2024-02-21T03:57:04;23.10;49.60
46784;DHT22;32544;52.832;13.816;2024-02-21T03:58:05;23.10;49.60
46784;DHT22;32544;52.832;13.816;2024-02-21T03:59:06;23.10;49.60
46784;DHT22;32544;52.832;13.816;2024-02-21T04:00:07;23.10;49.60
46784;DHT22;32544;52.832;13.816;2024-02-21T04:01:11;23.10;49.50
46784;DHT22;32544;52.832;13.816;2024-02-21T04:02:12;23.10;49.60
46784;DHT22;32544;52.832;13.816;2024-02-21T04:03:13;23.10;49.50
46784;DHT22;32544;52.832;13.816;2024-02-21T04:04:14;23.10;49.50
46784;DHT22;32544;52.832;13.816;2024-02-21T04:05:17;23.10;49.50
46784;DHT22;32544;52.832;13.816;2024-02-21T04:06:18;23.10;49.50
46784;DHT22;32544;52.832;13.816;2024-02-21T04:07:19;23.10;49.50
46784;DHT22;32544;52.832;13.816;2024-02-21T04:08:19;23.10;49.50
46784;DHT22;32544;52.832;13.816;2024-02-21T04:09:20;23.10;49.50
46784;DHT22;32544;52.832;13.816;2024-02-21T04:10:21;23.10;49.50
46784;DHT22;32544;52.832;13.816;2024-02-21T04:11:21;23.10;49.50
46784;DHT22;32544;52.832;13.816;2024-02-21T04:12:22;23.10;49.50
46784;DHT22;32544;52.832;13.816;2024-02-21T04:13:22;23.10;49.50
46784;DHT22;32544;52.832;13.816;2024-02-21T04:14:23;23.10;49.50
46784;DHT22;32544;52.832;13.816;2024-02-21T04:15:23;23.10;49.50
46784;DHT22;32544;52.832;13.816;2024-02-21T04:16:24;23.10;49.50
46784;DHT22;32544;52.832;13.816;2024-02-21T04:17:25;23.10;49.60
46784;DHT22;32544;52.832;13.816;2024-02-21T04:18:25;23.10;49.60
46784;DHT22;32544;52.832;13.816;2024-02-21T04:19:26;23.10;49.60
46784;DHT22;32544;52.832;13.816;2024-02-21T04:20:26;23.10;49.60
46784;DHT22;32544;52.832;13.816;2024-02-21T04:21:27;23.00;49.50
46784;DHT22;32544;52.832;13.816;2024-02-21T04:22:28;23.00;49.50
46784;DHT22;32544;52.832;13.816;2024-02-21T04:23:28;23.00;49.50
46784;DHT22;32544;52.832;13.816;2024-02-21T04:24:29;23.00;49.50
46784;DHT22;32544;52.832;13.816;2024-02-21T04:25:29;23.00;49.60
46784;DHT22;32544;52.832;13.816;2024-02-21T04:26:30;23.00;49.60
46784;DHT22;32544;52.832;13.816;2024-02-21T04:27:30;23.00;49.60
46784;DHT22;32544;52.832;13.816;2024-02-21T04:28:31;23.00;49.60
46784;DHT22;32544;52.832;13.816;2024-02-21T04:29:32;23.00;49.60
46784;DHT22;32544;52.832;13.816;2024-02-21T04:30:33;23.00;49.70
46784;DHT22;32544;52.832;13.816;2024-02-21T04:31:34;23.00;49.60
46784;DHT22;32544;52.832;13.816;2024-02-21T04:32:34;23.00;49.70
46784;DHT22;32544;52.832;13.816;2024-02-21T04:33:35;23.00;49.60
46784;DHT22;32544;52.832;13.816;2024-02-21T04:34:36;23.00;49.70
46784;DHT22;32544;52.832;13.816;2024-02-21T04:35:36;23.00;49.70
46784;DHT22;32544;52.832;13.816;2024-02-21T04:36:37;23.00;49.70
46784;DHT22;32544;52.832;13.816;2024-02-21T04:37:37;23.00;49.70
46784;DHT22;32544;52.832;13.816;2024-02-21T04:38:38;23.00;50.40
46784;DHT22;32544;52.832;13.816;2024-02-21T04:39:39;23.00;49.70
46784;DHT22;32544;52.832;13.816;2024-02-21T04:40:40;23.00;49.70
46784;DHT22;32544;52.832;13.816;2024-02-21T04:41:40;22.90;49.70
46784;DHT22;32544;52.832;13.816;2024-02-21T04:42:41;23.00;49.70
46784;DHT22;32544;52.832;13.816;2024-02-21T04:43:42;23.00;49.70
46784;DHT22;32544;52.832;13.816;2024-02-21T04:44:42;23.00;49.80
46784;DHT22;32544;52.832;13.816;2024-02-21T04:45:43;22.90;49.70
46784;DHT22;32544;52.832;13.816;2024-02-21T04:46:43;22.90;49.70
46784;DHT22;32544;52.832;13.816;2024-02-21T04:47:44;22.90;49.80
46784;DHT22;32544;52.832;13.816;2024-02-21T04:48:45;22.90;49.70
46784;DHT22;32544;52.832;13.816;2024-02-21T04:49:45;22.90;49.70
46784;DHT22;32544;52.832;13.816;2024-02-21T04:50:46;22.90;49.70
46784;DHT22;32544;52.832;13.816;2024-02-21T04:51:47;22.90;49.70
46784;DHT22;32544;52.832;13.816;2024-02-21T04:52:47;22.90;49.80
46784;DHT22;32544;52.832;13.816;2024-02-21T04:53:48;22.90;49.80
46784;DHT22;32544;52.832;13.816;2024-02-21T04:54:48;22.90;49.80
46784;DHT22;32544;52.832;13.816;2024-02-21T04:55:49;22.90;49.80
46784;DHT22;32544;52.832;13.816;2024-02-21T04:56:50;22.90;49.80
46784;DHT22;32544;52.832;13.816;2024-02-21T04:57:50;22.90;49.80
46784;DHT22;32544;52.832;13.816;2024-02-21T04:58:51;22.90;49.90
46784;DHT22;32544;52.832;13.816;2024-02-21T04:59:52;22.90;49.90
46784;DHT22;32544;52.832;13.816;2024-02-21T05:00:52;22.90;49.80
46784;DHT22;32544;52.832;13.816;2024-02-21T05:01:55;22.90;49.90
46784;DHT22;32544;52.832;13.816;2024-02-21T05:02:55;22.90;49.90
46784;DHT22;32544;52.832;13.816;2024-02-21T05:03:56;22.90;50.00
46784;DHT22;32544;52.832;13.816;2024-02-21T05:04:57;22.90;50.00
46784;DHT22;32544;52.832;13.816;2024-02-21T05:05:58;22.90;50.00
46784;DHT22;32544;52.832;13.816;2024-02-21T05:07:00;22.90;49.90
46784;DHT22;32544;52.832;13.816;2024-02-21T05:08:00;22.90;50.00
46784;DHT22;32544;52.832;13.816;2024-02-21T05:09:01;22.90;50.00
46784;DHT22;32544;52.832;13.816;2024-02-21T05:10:01;22.90;50.00
46784;DHT22;32544;52.832;13.816;2024-02-21T05:11:02;22.90;50.00
46784;DHT22;32544;52.832;13.816;2024-02-21T05:12:03;22.90;50.00
46784;DHT22;32544;52.832;13.816;2024-02-21T05:13:03;22.90;49.90
46784;DHT22;32544;52.832;13.816;2024-02-21T05:14:04;22.90;50.00
46784;DHT22;32544;52.832;13.816;2024-02-21T05:15:05;22.90;50.00
46784;DHT22;32544;52.832;13.816;2024-02-21T05:16:06;22.90;50.10
46784;DHT22;32544;52.832;13.816;2024-02-21T05:17:07;22.90;50.00
46784;DHT22;32544;52.832;13.816;2024-02-21T05:18:07;22.90;50.00
46784;DHT22;32544;52.832;13.816;2024-02-21T05:19:08;22.90;50.00
46784;DHT22;32544;52.832;13.816;2024-02-21T05:20:08;22.90;50.20
46784;DHT22;32544;52.832;13.816;2024-02-21T05:21:09;22.90;50.10
46784;DHT22;32544;52.832;13.816;2024-02-21T05:22:10;22.90;50.20
46784;DHT22;32544;52.832;13.816;2024-02-21T05:23:11;22.90;50.10
46784;DHT22;32544;52.832;13.816;2024-02-21T05:24:12;22.90;50.10
46784;DHT22;32544;52.832;13.816;2024-02-21T05:25:12;22.90;50.20
46784;DHT22;32544;52.832;13.816;2024-02-21T05:26:19;22.90;50.10
46784;DHT22;32544;52.832;13.816;2024-02-21T05:27:20;22.80;50.10
46784;DHT22;32544;52.832;13.816;2024-02-21T05:28:21;22.90;50.20
46784;DHT22;32544;52.832;13.816;2024-02-21T05:29:21;22.80;50.20
46784;DHT22;32544;52.832;13.816;2024-02-21T05:30:22;22.80;50.20
46784;DHT22;32544;52.832;13.816;2024-02-21T05:31:23;22.80;50.20
46784;DHT22;32544;52.832;13.816;2024-02-21T05:32:23;22.80;50.30
46784;DHT22;32544;52.832;13.816;2024-02-21T05:33:25;22.80;50.20
46784;DHT22;32544;52.832;13.816;2024-02-21T05:34:25;22.80;50.20
46784;DHT22;32544;52.832;13.816;2024-02-21T05:35:27;22.80;50.10
46784;DHT22;32544;52.832;13.816;2024-02-21T05:36:28;22.80;50.10
46784;DHT22;32544;52.832;13.816;2024-02-21T05:37:29;22.80;50.10
46784;DHT22;32544;52.832;13.816;2024-02-21T05:38:29;22.80;50.00
46784;DHT22;32544;52.832;13.816;2024-02-21T05:39:30;22.80;50.10
46784;DHT22;32544;52.832;13.816;2024-02-21T05:40:30;22.80;50.10
46784;DHT22;32544;52.832;13.816;2024-02-21T05:41:31;22.90;50.10
46784;DHT22;32544;52.832;13.816;2024-02-21T05:42:32;22.90;50.10
46784;DHT22;32544;52.832;13.816;2024-02-21T05:43:32;22.90;50.10
46784;DHT22;32544;52.832;13.816;2024-02-21T05:44:33;22.80;50.00
46784;DHT22;32544;52.832;13.816;2024-02-21T05:45:34;22.80;50.20
46784;DHT22;32544;52.832;13.816;2024-02-21T05:46:35;22.80;50.10
46784;DHT22;32544;52.832;13.816;2024-02-21T05:47:35;22.80;50.10
46784;DHT22;32544;52.832;13.816;2024-02-21T05:48:36;22.80;50.20
46784;DHT22;32544;52.832;13.816;2024-02-21T05:49:36;22.80;50.10
46784;DHT22;32544;52.832;13.816;2024-02-21T05:50:37;22.80;50.20
46784;DHT22;32544;52.832;13.816;2024-02-21T05:51:38;22.80;50.10
46784;DHT22;32544;52.832;13.816;2024-02-21T05:52:38;22.80;50.10
46784;DHT22;32544;52.832;13.816;2024-02-21T05:53:40;22.80;50.10
46784;DHT22;32544;52.832;13.816;2024-02-21T05:54:40;22.80;50.10
46784;DHT22;32544;52.832;13.816;2024-02-21T05:55:41;22.80;50.10
46784;DHT22;32544;52.832;13.816;2024-02-21T05:56:45;22.80;50.10
46784;DHT22;32544;52.832;13.816;2024-02-21T05:57:46;22.80;50.10
46784;DHT22;32544;52.832;13.816;2024-02-21T05:58:46;22.80;50.10
46784;DHT22;32544;52.832;13.816;2024-02-21T05:59:47;22.80;50.10
46784;DHT22;32544;52.832;13.816;2024-02-21T06:00:47;22.80;50.20
46784;DHT22;32544;52.832;13.816;2024-02-21T06:01:55;22.80;50.10
46784;DHT22;32544;52.832;13.816;2024-02-21T06:02:58;22.80;50.10
46784;DHT22;32544;52.832;13.816;2024-02-21T06:03:58;22.80;50.20
46784;DHT22;32544;52.832;13.816;2024-02-21T06:04:59;22.80;50.20
46784;DHT22;32544;52.832;13.816;2024-02-21T06:06:00;22.80;50.10
46784;DHT22;32544;52.832;13.816;2024-02-21T06:07:01;22.80;50.10
46784;DHT22;32544;52.832;13.816;2024-02-21T06:08:02;22.80;50.00
46784;DHT22;32544;52.832;13.816;2024-02-21T06:09:03;22.80;50.10
46784;DHT22;32544;52.832;13.816;2024-02-21T06:10:04;22.80;50.10
46784;DHT22;32544;52.832;13.816;2024-02-21T06:11:05;22.80;50.70
46784;DHT22;32544;52.832;13.816;2024-02-21T06:12:05;22.80;50.00
46784;DHT22;32544;52.832;13.816;2024-02-21T06:13:06;22.90;50.20
46784;DHT22;32544;52.832;13.816;2024-02-21T06:14:07;22.80;50.00
46784;DHT22;32544;52.832;13.816;2024-02-21T06:15:07;22.80;50.10
46784;DHT22;32544;52.832;13.816;2024-02-21T06:16:08;22.80;50.10
46784;DHT22;32544;52.832;13.816;2024-02-21T06:17:08;22.90;50.10
46784;DHT22;32544;52.832;13.816;2024-02-21T06:18:09;22.80;50.10